Time;durP1;ratioP1;P1;durP2;ratioP2;P2;SDS_P1;SDS_P2;PMS_P1;PMS_P2;Temp;Humidity;BMP_temperature;BMP_pressure;BME280_temperature;BME280_humidity;BME280_pressure;Samples;Min_cycle;Max_cycle;Signal;HPM_P1;HPM_P2
2023/12/13 00:00:31;;;;;;;;;;;;;;;3.16;98.07;95040.84;5113617;28;972;-63
2023/12/13 00:02:59;;;;;;;;;;;;;;;3.32;97.48;95044.84;5114101;28;991;-63
2023/12/13 00:05:25;;;;;;;;;;;;;;;3.50;96.08;95047.00;5113420;28;1083;-63
2023/12/13 00:07:51;;;;;;;;;;;;;;;3.59;95.93;95035.69;5113687;28;988;-63
2023/12/13 00:10:17;;;;;;;;;;;;;;;3.77;95.60;95040.47;5113296;28;1905;-63
2023/12/13 00:12:43;;;;;;;;;;;;;;;3.77;95.79;95030.75;5113577;28;964;-63
2023/12/13 00:15:09;;;;;;;;;;;;;;;3.76;95.77;95034.38;5113757;28;968;-63
2023/12/13 00:17:35;;;;;;;;;;;;;;;3.61;96.28;95030.28;5116380;28;1019;-63
2023/12/13 00:20:05;;;;;;;;;;;;;;;3.53;97.12;95030.91;5117923;28;976;-63
2023/12/13 00:22:31;;;;;;;;;;;;;;;3.46;98.14;95030.53;5117548;28;1237;-63
2023/12/13 00:24:57;;;;;;;;;;;;;;;3.60;98.31;95040.00;5117844;28;1040;-62
2023/12/13 00:27:23;;;;;;;;;;;;;;;3.84;96.74;95033.75;5117513;28;932;-63
2023/12/13 00:29:49;;;;;;;;;;;;;;;3.96;96.36;95035.38;5117634;28;1988;-63
2023/12/13 00:32:15;;;;;;;;;;;;;;;4.07;96.32;95024.78;5117254;28;1048;-63
2023/12/13 00:34:41;;;;;;;;;;;;;;;4.14;96.18;95025.13;5117594;28;1051;-63
2023/12/13 00:37:07;;;;;;;;;;;;;;;4.07;96.14;95022.13;5117367;28;1037;-63
2023/12/13 00:39:33;;;;;;;;;;;;;;;4.04;96.54;95021.53;5117134;28;1048;-62
2023/12/13 00:41:59;;;;;;;;;;;;;;;3.90;94.67;95018.22;5117216;28;1037;-63
2023/12/13 00:44:25;;;;;;;;;;;;;;;3.75;95.85;95013.31;5116975;28;1080;-63
2023/12/13 00:46:51;;;;;;;;;;;;;;;3.60;96.02;95008.28;5117218;28;1036;-63
2023/12/13 00:49:17;;;;;;;;;;;;;;;3.43;97.31;95006.97;5116881;28;1990;-62
2023/12/13 00:51:43;;;;;;;;;;;;;;;3.50;97.58;95007.34;5117322;28;1051;-62
2023/12/13 00:54:09;;;;;;;;;;;;;;;3.65;97.36;95011.41;5116894;28;1169;-63
2023/12/13 00:56:36;;;;;;;;;;;;;;;3.72;96.45;95004.69;5117026;28;968;-63
2023/12/13 00:59:03;;;;;;;;;;;;;;;3.61;97.42;95004.69;5116922;28;1107;-63
2023/12/13 01:01:29;;;;;;;;;;;;;;;3.62;97.76;95010.81;5117157;28;1051;-63
2023/12/13 01:04:14;;;;;;;;;;;;;;;3.74;96.21;95007.19;5117038;28;1552;-62
2023/12/13 01:06:40;;;;;;;;;;;;;;;3.49;96.67;95006.50;5116989;28;1189;-63
2023/12/13 01:09:06;;;;;;;;;;;;;;;3.25;97.59;95001.34;5116799;28;1993;-63
2023/12/13 01:11:32;;;;;;;;;;;;;;;3.42;97.76;94997.38;5116563;28;1031;-63
2023/12/13 01:13:59;;;;;;;;;;;;;;;3.31;97.96;94982.34;5116632;28;1090;-63
2023/12/13 01:16:25;;;;;;;;;;;;;;;3.13;98.61;94965.34;5116676;28;1023;-62
2023/12/13 01:18:51;;;;;;;;;;;;;;;3.23;98.67;94945.16;5116816;28;1055;-63
2023/12/13 01:21:17;;;;;;;;;;;;;;;3.37;97.45;94949.31;5116707;28;1027;-63
2023/12/13 01:23:43;;;;;;;;;;;;;;;3.32;97.00;94952.34;5116764;28;1035;-63
2023/12/13 01:26:09;;;;;;;;;;;;;;;3.27;96.53;94964.25;5116654;28;1039;-62
2023/12/13 01:28:35;;;;;;;;;;;;;;;3.17;95.89;94973.84;5115631;28;1987;-62
2023/12/13 01:31:04;;;;;;;;;;;;;;;3.15;95.78;94962.53;5116525;28;953;-63
2023/12/13 01:33:30;;;;;;;;;;;;;;;3.01;96.53;94974.19;5116194;28;1035;-64
2023/12/13 01:35:56;;;;;;;;;;;;;;;2.86;96.22;94977.06;5116396;28;1095;-64
2023/12/13 01:38:22;;;;;;;;;;;;;;;2.85;97.55;94987.75;5116024;28;1052;-63
2023/12/13 01:40:49;;;;;;;;;;;;;;;2.83;96.36;94990.53;5116230;28;984;-63
2023/12/13 01:43:22;;;;;;;;;;;;;;;2.71;96.77;94967.69;5116247;28;1007;-63
2023/12/13 01:45:48;;;;;;;;;;;;;;;2.30;98.35;94950.56;5115894;28;1241;-63
2023/12/13 01:48:14;;;;;;;;;;;;;;;2.32;99.44;94949.50;5114917;28;1052;-63
2023/12/13 01:50:40;;;;;;;;;;;;;;;2.71;98.46;94965.03;5115754;28;1985;-63
2023/12/13 01:53:06;;;;;;;;;;;;;;;2.83;96.63;94963.28;5116160;28;1031;-63
2023/12/13 01:55:32;;;;;;;;;;;;;;;2.71;95.84;94965.03;5116251;28;1157;-63
2023/12/13 01:57:58;;;;;;;;;;;;;;;2.40;96.12;94962.09;5115704;28;1098;-63
2023/12/13 02:00:24;;;;;;;;;;;;;;;2.42;97.23;94959.34;5115578;28;1027;-63
2023/12/13 02:02:51;;;;;;;;;;;;;;;2.57;96.45;94962.63;5115839;28;976;-63
2023/12/13 02:05:17;;;;;;;;;;;;;;;2.40;96.67;94953.34;5115876;28;1019;-63
2023/12/13 02:07:43;;;;;;;;;;;;;;;2.38;97.58;94953.47;5115783;28;996;-63
2023/12/13 02:10:10;;;;;;;;;;;;;;;2.62;96.84;94958.69;5115618;28;1983;-63
2023/12/13 02:12:36;;;;;;;;;;;;;;;2.53;96.98;94947.03;5115812;28;952;-63
2023/12/13 02:15:02;;;;;;;;;;;;;;;2.66;96.54;94946.09;5115616;28;1051;-63
2023/12/13 02:17:29;;;;;;;;;;;;;;;2.52;96.17;94936.56;5115362;28;1040;-63
2023/12/13 02:19:55;;;;;;;;;;;;;;;2.46;96.56;94927.31;5115538;28;1135;-63
2023/12/13 02:22:21;;;;;;;;;;;;;;;2.41;97.75;94916.31;5115227;28;1115;-63
2023/12/13 02:24:48;;;;;;;;;;;;;;;2.44;97.87;94923.13;5115485;28;1028;-63
2023/12/13 02:27:14;;;;;;;;;;;;;;;2.68;97.22;94923.88;5115196;28;969;-63
2023/12/13 02:29:40;;;;;;;;;;;;;;;2.54;97.61;94910.91;5115066;28;1910;-63
2023/12/13 02:32:06;;;;;;;;;;;;;;;2.62;96.81;94894.47;5115358;28;1007;-63
2023/12/13 02:34:32;;;;;;;;;;;;;;;2.67;96.65;94879.97;5114057;28;976;-64
2023/12/13 02:36:58;;;;;;;;;;;;;;;2.66;96.83;94874.81;5115284;28;972;-63
2023/12/13 02:39:24;;;;;;;;;;;;;;;2.72;96.65;94869.06;5112751;28;1040;-63
2023/12/13 02:41:50;;;;;;;;;;;;;;;2.65;96.62;94878.41;5114930;28;1056;-63
2023/12/13 02:44:16;;;;;;;;;;;;;;;2.71;96.20;94892.00;5114533;28;1100;-64
2023/12/13 02:46:42;;;;;;;;;;;;;;;2.70;96.60;94916.69;5115218;28;1063;-63
2023/12/13 02:49:08;;;;;;;;;;;;;;;2.57;96.13;94921.25;5114997;28;1909;-64
2023/12/13 02:51:34;;;;;;;;;;;;;;;2.54;96.31;94922.31;5114734;28;1051;-63
2023/12/13 02:53:59;;;;;;;;;;;;;;;2.68;96.73;94904.59;5114935;28;1201;-63
2023/12/13 02:56:26;;;;;;;;;;;;;;;2.46;97.57;94913.31;5114616;28;979;-64
2023/12/13 02:58:52;;;;;;;;;;;;;;;2.29;100.00;94911.94;5114497;28;1040;-64
2023/12/13 03:01:18;;;;;;;;;;;;;;;2.48;100.00;94906.09;5114468;28;1028;-64
2023/12/13 03:03:43;;;;;;;;;;;;;;;2.70;98.76;94900.84;5114637;28;1039;-63
2023/12/13 03:06:09;;;;;;;;;;;;;;;2.75;98.31;94892.56;5114739;28;983;-63
2023/12/13 03:08:36;;;;;;;;;;;;;;;2.64;96.85;94903.13;5114392;28;1914;-63
2023/12/13 03:11:02;;;;;;;;;;;;;;;2.66;97.33;94915.25;5114676;28;976;-63
2023/12/13 03:13:28;;;;;;;;;;;;;;;2.73;97.63;94913.81;5114273;28;1004;-63
2023/12/13 03:15:54;;;;;;;;;;;;;;;2.79;97.58;94909.88;5114434;28;1046;-63
2023/12/13 03:18:20;;;;;;;;;;;;;;;2.77;97.98;94914.44;5114115;28;1048;-63
2023/12/13 03:20:47;;;;;;;;;;;;;;;2.94;97.13;94902.56;5114363;28;1055;-63
2023/12/13 03:23:13;;;;;;;;;;;;;;;2.92;97.18;94899.16;5114366;28;970;-63
2023/12/13 03:25:39;;;;;;;;;;;;;;;2.66;99.13;94898.59;5114083;28;1040;-63
2023/12/13 03:28:05;;;;;;;;;;;;;;;2.79;99.72;94904.59;5114226;28;968;-63
2023/12/13 03:30:31;;;;;;;;;;;;;;;2.92;99.99;94915.00;5113852;28;1983;-63
2023/12/13 03:32:57;;;;;;;;;;;;;;;3.16;97.81;94928.09;5113981;28;1079;-64
2023/12/13 03:35:23;;;;;;;;;;;;;;;3.21;97.54;94935.66;5113904;28;1111;-64
2023/12/13 03:37:49;;;;;;;;;;;;;;;2.88;96.30;94927.63;5113974;28;1058;-63
2023/12/13 03:40:15;;;;;;;;;;;;;;;2.67;99.15;94931.94;5113729;28;984;-63
2023/12/13 03:42:41;;;;;;;;;;;;;;;2.54;100.00;94930.25;5113988;28;1032;-63
2023/12/13 03:45:07;;;;;;;;;;;;;;;2.73;100.00;94920.88;5113794;28;1076;-63
2023/12/13 03:47:33;;;;;;;;;;;;;;;2.58;100.00;94906.22;5113924;28;976;-63
2023/12/13 03:49:59;;;;;;;;;;;;;;;2.92;100.00;94931.72;5113549;28;1909;-63
2023/12/13 03:52:25;;;;;;;;;;;;;;;3.12;100.00;94926.66;5113754;28;1039;-63
2023/12/13 03:54:51;;;;;;;;;;;;;;;3.29;99.48;94928.78;5113575;28;1209;-63
2023/12/13 03:57:17;;;;;;;;;;;;;;;3.12;99.51;94938.06;5113813;28;984;-63
2023/12/13 03:59:43;;;;;;;;;;;;;;;3.13;99.74;94936.28;5113861;28;1047;-63
2023/12/13 04:02:09;;;;;;;;;;;;;;;3.28;99.72;94920.97;5113815;28;969;-63
2023/12/13 04:04:35;;;;;;;;;;;;;;;3.10;100.00;94907.44;5113702;28;1032;-63
2023/12/13 04:07:01;;;;;;;;;;;;;;;3.12;100.00;94905.53;5113833;28;988;-63
2023/12/13 04:09:27;;;;;;;;;;;;;;;3.37;100.00;94893.00;5113491;28;1990;-63
2023/12/13 04:11:53;;;;;;;;;;;;;;;3.45;100.00;94890.56;5113480;28;1008;-63
2023/12/13 04:14:19;;;;;;;;;;;;;;;3.50;99.30;94888.41;5113344;28;1036;-63
2023/12/13 04:16:45;;;;;;;;;;;;;;;3.57;98.50;94894.88;5113722;28;1007;-63
2023/12/13 04:19:11;;;;;;;;;;;;;;;3.50;97.84;94893.69;5113504;28;1052;-61
2023/12/13 04:21:38;;;;;;;;;;;;;;;3.18;98.37;94891.00;5112507;28;957;-65
2023/12/13 04:24:04;;;;;;;;;;;;;;;3.13;99.26;94891.38;5113488;28;1052;-65
2023/12/13 04:26:30;;;;;;;;;;;;;;;3.23;99.41;94880.91;5113186;28;1060;-62
2023/12/13 04:28:56;;;;;;;;;;;;;;;3.10;100.00;94881.03;5113462;28;1910;-65
2023/12/13 04:31:22;;;;;;;;;;;;;;;3.14;100.00;94887.75;5113437;28;1007;-64
2023/12/13 04:33:48;;;;;;;;;;;;;;;3.20;100.00;94876.69;5112080;28;1028;-64
2023/12/13 04:36:14;;;;;;;;;;;;;;;3.28;100.00;94874.28;5113183;28;1025;-64
2023/12/13 04:38:40;;;;;;;;;;;;;;;3.41;99.97;94868.81;5113484;28;972;-63
2023/12/13 04:41:06;;;;;;;;;;;;;;;3.29;100.00;94865.38;5113212;28;1016;-63
2023/12/13 04:43:31;;;;;;;;;;;;;;;3.43;100.00;94872.19;5113363;28;1055;-66
2023/12/13 04:45:57;;;;;;;;;;;;;;;3.57;99.61;94872.88;5113141;28;1091;-62
2023/12/13 04:48:23;;;;;;;;;;;;;;;3.62;99.00;94870.69;5113080;28;1046;-63
2023/12/13 04:50:49;;;;;;;;;;;;;;;3.54;99.09;94860.75;5113006;28;1976;-63
2023/12/13 04:53:15;;;;;;;;;;;;;;;3.57;99.62;94859.66;5113057;28;1136;-64
2023/12/13 04:55:41;;;;;;;;;;;;;;;3.53;100.00;94845.84;5113004;28;1209;-64
2023/12/13 04:58:08;;;;;;;;;;;;;;;3.45;99.79;94833.28;5113082;28;1044;-61
2023/12/13 05:00:34;;;;;;;;;;;;;;;3.40;100.00;94834.63;5113284;28;949;-63
2023/12/13 05:03:00;;;;;;;;;;;;;;;3.27;100.00;94835.59;5114777;28;1090;-61
2023/12/13 05:05:26;;;;;;;;;;;;;;;3.33;100.00;94845.66;5116723;28;1012;-62
2023/12/13 05:07:52;;;;;;;;;;;;;;;3.42;100.00;94844.09;5117090;28;1058;-62
2023/12/13 05:10:18;;;;;;;;;;;;;;;3.42;100.00;94830.88;5116572;28;1992;-63
2023/12/13 05:12:44;;;;;;;;;;;;;;;3.24;100.00;94830.53;5116950;28;924;-62
2023/12/13 05:15:10;;;;;;;;;;;;;;;3.28;100.00;94825.84;5115708;28;983;-61
2023/12/13 05:17:36;;;;;;;;;;;;;;;3.36;100.00;94833.16;5117009;27;959;-62
2023/12/13 05:20:03;;;;;;;;;;;;;;;3.39;100.00;94840.84;5116933;28;1056;-62
2023/12/13 05:22:29;;;;;;;;;;;;;;;3.38;100.00;94840.03;5116451;28;1169;-62
2023/12/13 05:24:55;;;;;;;;;;;;;;;3.44;100.00;94828.09;5116459;28;1036;-61
2023/12/13 05:27:21;;;;;;;;;;;;;;;3.26;99.87;94825.16;5116273;28;1031;-61
2023/12/13 05:29:47;;;;;;;;;;;;;;;3.05;100.00;94814.50;5116438;28;1905;-62
2023/12/13 05:32:14;;;;;;;;;;;;;;;3.21;100.00;94816.78;5116529;28;960;-62
2023/12/13 05:34:40;;;;;;;;;;;;;;;3.31;100.00;94831.72;5116356;28;1043;-63
2023/12/13 05:37:06;;;;;;;;;;;;;;;3.25;100.00;94842.81;5116653;28;1096;-60
2023/12/13 05:39:32;;;;;;;;;;;;;;;3.35;100.00;94858.75;5116119;28;1048;-62
2023/12/13 05:41:58;;;;;;;;;;;;;;;3.27;100.00;94854.09;5116080;28;1052;-64
2023/12/13 05:44:24;;;;;;;;;;;;;;;3.35;100.00;94852.63;5116105;28;1218;-64
2023/12/13 05:46:50;;;;;;;;;;;;;;;3.27;100.00;94840.88;5116397;28;1015;-64
2023/12/13 05:49:16;;;;;;;;;;;;;;;3.39;99.96;94843.50;5115914;28;1901;-59
2023/12/13 05:51:42;;;;;;;;;;;;;;;3.39;99.84;94830.28;5115880;28;1048;-60
2023/12/13 05:54:08;;;;;;;;;;;;;;;3.34;100.00;94820.09;5115882;28;1204;-59
2023/12/13 05:56:34;;;;;;;;;;;;;;;3.35;99.70;94805.06;5115785;28;1051;-60
2023/12/13 05:59:00;;;;;;;;;;;;;;;3.33;100.00;94806.03;5114897;28;1039;-60
2023/12/13 06:01:26;;;;;;;;;;;;;;;3.22;100.00;94813.16;5114544;28;1036;-60
2023/12/13 06:03:52;;;;;;;;;;;;;;;3.04;100.00;94823.41;5116045;28;933;-61
2023/12/13 06:06:19;;;;;;;;;;;;;;;3.05;100.00;94822.44;5115786;28;977;-60
2023/12/13 06:08:45;;;;;;;;;;;;;;;3.18;100.00;94815.19;5115533;28;1993;-64
2023/12/13 06:11:11;;;;;;;;;;;;;;;3.07;100.00;94817.88;5115071;28;1037;-64
2023/12/13 06:13:37;;;;;;;;;;;;;;;3.05;100.00;94801.31;5114917;28;983;-63
2023/12/13 06:16:04;;;;;;;;;;;;;;;3.07;100.00;94808.16;5115076;28;1012;-62
2023/12/13 06:18:30;;;;;;;;;;;;;;;3.25;100.00;94812.91;5115494;28;1040;-64
2023/12/13 06:20:56;;;;;;;;;;;;;;;3.45;100.00;94808.63;5115386;28;1053;-64
2023/12/13 06:23:23;;;;;;;;;;;;;;;3.55;100.00;94811.34;5115314;28;972;-65
2023/12/13 06:25:49;;;;;;;;;;;;;;;3.51;99.88;94805.50;5115230;28;1028;-64
2023/12/13 06:28:15;;;;;;;;;;;;;;;3.62;99.73;94792.19;5115142;28;1095;-63
2023/12/13 06:30:42;;;;;;;;;;;;;;;3.79;99.74;94795.25;5115379;28;1909;-64
2023/12/13 06:33:08;;;;;;;;;;;;;;;3.68;99.33;94783.78;5115492;28;1066;-65
2023/12/13 06:35:36;;;;;;;;;;;;;;;3.50;99.12;94772.09;5115091;28;1020;-63
2023/12/13 06:38:02;;;;;;;;;;;;;;;3.48;100.00;94772.22;5115464;28;948;-64
2023/12/13 06:40:28;;;;;;;;;;;;;;;3.77;99.65;94779.50;5114903;28;972;-64
2023/12/13 06:42:54;;;;;;;;;;;;;;;3.63;100.00;94780.69;5115015;28;972;-64
2023/12/13 06:45:20;;;;;;;;;;;;;;;3.89;100.00;94785.59;5114655;28;1114;-64
2023/12/13 06:47:48;;;;;;;;;;;;;;;3.77;100.00;94765.47;5113647;28;1091;-64
2023/12/13 06:50:14;;;;;;;;;;;;;;;3.90;100.00;94772.22;5114656;28;1988;-64
2023/12/13 06:52:40;;;;;;;;;;;;;;;4.00;99.97;94768.81;5114754;27;1044;-64
2023/12/13 06:55:06;;;;;;;;;;;;;;;4.13;99.42;94766.78;5114924;28;1157;-63
2023/12/13 06:57:32;;;;;;;;;;;;;;;4.34;98.13;94764.09;5113721;28;966;-63
2023/12/13 06:59:58;;;;;;;;;;;;;;;4.42;97.50;94764.28;5114726;28;801;-64
2023/12/13 07:02:24;;;;;;;;;;;;;;;4.30;97.71;94767.97;5114752;27;1107;-64
2023/12/13 07:04:51;;;;;;;;;;;;;;;4.38;98.16;94783.19;5114671;28;1028;-61
2023/12/13 07:07:16;;;;;;;;;;;;;;;4.50;97.12;94777.69;5114473;28;1091;-62
2023/12/13 07:09:46;;;;;;;;;;;;;;;4.59;97.08;94780.50;5114638;28;1993;-62
2023/12/13 07:12:11;;;;;;;;;;;;;;;4.42;98.26;94774.03;5114621;28;1032;-62
2023/12/13 07:14:39;;;;;;;;;;;;;;;4.24;99.40;94766.69;5114588;28;1126;-61
2023/12/13 07:17:05;;;;;;;;;;;;;;;4.39;99.10;94790.19;5114321;28;1020;-62
2023/12/13 07:19:31;;;;;;;;;;;;;;;4.30;99.84;94776.75;5114252;28;1091;-62
2023/12/13 07:21:58;;;;;;;;;;;;;;;4.36;99.09;94769.25;5114279;28;1146;-62
2023/12/13 07:24:24;;;;;;;;;;;;;;;4.39;99.33;94751.31;5114446;28;1003;-62
2023/12/13 07:26:50;;;;;;;;;;;;;;;4.47;98.64;94751.47;5112838;28;965;-62
2023/12/13 07:29:16;;;;;;;;;;;;;;;4.61;98.98;94746.78;5114395;28;1906;-61
2023/12/13 07:31:42;;;;;;;;;;;;;;;4.66;99.12;94755.16;5114031;28;1035;-61
2023/12/13 07:34:09;;;;;;;;;;;;;;;5.01;97.51;94760.00;5114039;28;1091;-62
2023/12/13 07:36:36;;;;;;;;;;;;;;;5.09;96.47;94768.09;5113810;28;1056;-62
2023/12/13 07:39:03;;;;;;;;;;;;;;;5.42;94.87;94758.06;5112594;28;1044;-61
2023/12/13 07:41:29;;;;;;;;;;;;;;;5.20;96.15;94753.06;5112950;28;988;-62
2023/12/13 07:43:55;;;;;;;;;;;;;;;5.21;95.68;94771.44;5113646;28;1223;-61
2023/12/13 07:46:21;;;;;;;;;;;;;;;5.43;95.38;94772.19;5114391;28;1062;-62
2023/12/13 07:48:51;;;;;;;;;;;;;;;5.74;94.37;94766.72;5113816;28;1909;-62
2023/12/13 07:51:17;;;;;;;;;;;;;;;6.10;92.66;94769.66;5113919;28;932;-61
2023/12/13 07:53:43;;;;;;;;;;;;;;;6.42;91.95;94771.94;5113478;28;1216;-61
2023/12/13 07:56:09;;;;;;;;;;;;;;;6.61;91.28;94771.84;5113984;28;956;-62
2023/12/13 07:58:35;;;;;;;;;;;;;;;6.67;92.76;94764.28;5113807;28;1031;-61
2023/12/13 08:01:01;;;;;;;;;;;;;;;6.69;92.47;94757.84;5113741;28;961;-61
2023/12/13 08:03:27;;;;;;;;;;;;;;;6.82;93.77;94765.47;5113496;28;1089;-61
2023/12/13 08:05:53;;;;;;;;;;;;;;;7.07;92.34;94752.47;5113483;28;1194;-61
2023/12/13 08:08:19;;;;;;;;;;;;;;;7.31;91.25;94751.91;5113519;28;1003;-62
2023/12/13 08:10:46;;;;;;;;;;;;;;;7.54;89.42;94747.78;5113615;28;1992;-62
2023/12/13 08:13:12;;;;;;;;;;;;;;;7.61;89.90;94737.38;5112394;28;973;-60
2023/12/13 08:15:38;;;;;;;;;;;;;;;7.79;89.88;94746.16;5113530;28;1040;-61
2023/12/13 08:18:04;;;;;;;;;;;;;;;7.77;88.23;94749.97;5113708;28;1016;-61
2023/12/13 08:20:30;;;;;;;;;;;;;;;7.54;91.08;94736.31;5113636;28;975;-61
2023/12/13 08:22:56;;;;;;;;;;;;;;;7.40;91.32;94738.53;5113275;28;1084;-62
2023/12/13 08:25:22;;;;;;;;;;;;;;;7.59;91.13;94734.03;5113330;28;1032;-61
2023/12/13 08:27:49;;;;;;;;;;;;;;;7.63;91.26;94732.75;5113528;28;977;-60
2023/12/13 08:30:15;;;;;;;;;;;;;;;7.74;90.30;94745.81;5113405;28;1909;-61
2023/12/13 08:32:41;;;;;;;;;;;;;;;7.73;89.84;94761.94;5112276;28;992;-61
2023/12/13 08:35:07;;;;;;;;;;;;;;;7.62;90.21;94774.47;5113700;28;951;-61
2023/12/13 08:37:33;;;;;;;;;;;;;;;7.71;89.81;94764.72;5114296;28;1094;-61
2023/12/13 08:40:00;;;;;;;;;;;;;;;7.60;89.60;94773.78;5117526;28;980;-61
2023/12/13 08:42:26;;;;;;;;;;;;;;;7.44;90.45;94760.34;5117178;28;1101;-61
2023/12/13 08:48:50;;;;;;;;;;;;;;;7.52;89.45;94775.53;5111971;28;1977;-61
2023/12/13 08:51:16;;;;;;;;;;;;;;;7.41;90.23;94757.97;5117239;28;996;-60
2023/12/13 08:53:42;;;;;;;;;;;;;;;7.59;88.80;94750.00;5117504;28;1157;-62
2023/12/13 08:56:09;;;;;;;;;;;;;;;7.95;88.03;94761.44;5117356;28;1114;-60
2023/12/13 08:58:36;;;;;;;;;;;;;;;8.40;86.56;94759.56;5116904;28;1016;-60
2023/12/13 09:01:02;;;;;;;;;;;;;;;8.30;85.47;94765.00;5117291;28;1027;-60
2023/12/13 09:03:28;;;;;;;;;;;;;;;8.31;86.29;94749.88;5117004;28;1130;-60
2023/12/13 09:05:54;;;;;;;;;;;;;;;8.61;85.15;94753.91;5116991;28;1027;-60
2023/12/13 09:08:20;;;;;;;;;;;;;;;8.53;86.15;94737.88;5115832;28;1076;-59
2023/12/13 09:10:46;;;;;;;;;;;;;;;8.55;86.90;94727.88;5116922;28;1909;-60
2023/12/13 09:13:13;;;;;;;;;;;;;;;8.67;85.54;94717.78;5116617;28;1028;-60
2023/12/13 09:15:39;;;;;;;;;;;;;;;8.70;85.76;94714.81;5116659;28;1012;-59
2023/12/13 09:18:05;;;;;;;;;;;;;;;8.68;87.38;94725.63;5115466;28;1111;-60
2023/12/13 09:20:31;;;;;;;;;;;;;;;8.91;85.21;94736.53;5117014;28;1032;-60
2023/12/13 09:22:57;;;;;;;;;;;;;;;9.25;84.69;94718.81;5116638;28;1047;-60
2023/12/13 09:25:25;;;;;;;;;;;;;;;9.90;80.30;94702.88;5116462;28;960;-59
2023/12/13 09:27:51;;;;;;;;;;;;;;;10.44;77.13;94704.16;5116749;27;1012;-59
2023/12/13 09:30:17;;;;;;;;;;;;;;;10.63;75.20;94711.75;5116502;28;1907;-59
2023/12/13 09:32:43;;;;;;;;;;;;;;;10.40;73.20;94705.50;5116606;28;1043;-59
2023/12/13 09:35:09;;;;;;;;;;;;;;;9.98;75.58;94691.34;5116358;28;1028;-59
2023/12/13 09:37:35;;;;;;;;;;;;;;;10.59;73.93;94699.75;5116487;28;1079;-59
2023/12/13 09:40:02;;;;;;;;;;;;;;;11.38;71.21;94697.00;5116134;28;1185;-59
2023/12/13 09:42:29;;;;;;;;;;;;;;;12.01;69.68;94688.88;5116145;28;1045;-60
2023/12/13 09:44:55;;;;;;;;;;;;;;;12.20;68.86;94693.75;5116377;28;997;-59
2023/12/13 09:47:23;;;;;;;;;;;;;;;12.09;68.48;94670.88;5116059;28;1083;-60
2023/12/13 09:49:49;;;;;;;;;;;;;;;12.09;67.74;94668.19;5115825;28;1913;-59
2023/12/13 09:52:18;;;;;;;;;;;;;;;12.43;67.47;94663.34;5115880;27;1024;-59
2023/12/13 09:54:45;;;;;;;;;;;;;;;12.46;66.83;94657.59;5114644;28;1245;-60
2023/12/13 09:57:12;;;;;;;;;;;;;;;12.76;66.34;94649.56;5116124;28;1032;-59
2023/12/13 09:59:38;;;;;;;;;;;;;;;12.54;68.01;94645.94;5116153;28;1047;-59
2023/12/13 10:02:22;;;;;;;;;;;;;;;12.64;69.54;94647.34;5115844;28;1196;-60
2023/12/13 10:04:48;;;;;;;;;;;;;;;13.00;69.97;94630.44;5114911;28;973;-59
2023/12/13 10:07:14;;;;;;;;;;;;;;;13.41;68.61;94631.72;5115894;28;914;-59
2023/12/13 10:09:41;;;;;;;;;;;;;;;13.62;67.73;94652.41;5115628;28;1913;-59
2023/12/13 10:12:07;;;;;;;;;;;;;;;13.57;66.42;94633.34;5115641;28;1415;-59
2023/12/13 10:14:36;;;;;;;;;;;;;;;13.56;65.94;94629.81;5114579;28;966;-61
2023/12/13 10:17:03;;;;;;;;;;;;;;;13.26;66.70;94632.59;5114337;28;1056;-61
2023/12/13 10:19:30;;;;;;;;;;;;;;;13.14;68.69;94633.28;5114352;28;1106;-63
2023/12/13 10:21:56;;;;;;;;;;;;;;;13.07;67.06;94630.50;5115662;28;1032;-62
2023/12/13 10:24:23;;;;;;;;;;;;;;;12.96;68.21;94618.44;5115573;28;1106;-63
2023/12/13 10:26:50;;;;;;;;;;;;;;;12.69;67.17;94615.44;5115280;28;1040;-62
2023/12/13 10:29:19;;;;;;;;;;;;;;;12.40;70.04;94599.38;5115078;28;1909;-62
2023/12/13 10:31:45;;;;;;;;;;;;;;;12.16;70.85;94592.44;5115333;28;968;-62
2023/12/13 10:34:11;;;;;;;;;;;;;;;11.96;71.26;94566.19;5115265;28;981;-61
2023/12/13 10:36:38;;;;;;;;;;;;;;;11.87;72.56;94570.75;5113903;28;1043;-62
2023/12/13 10:39:05;;;;;;;;;;;;;;;11.72;73.07;94577.94;5114115;28;925;-61
2023/12/13 10:41:31;;;;;;;;;;;;;;;11.82;72.74;94593.75;5113909;28;1048;-62
2023/12/13 10:43:58;;;;;;;;;;;;;;;11.72;73.45;94564.56;5115309;28;968;-65
2023/12/13 10:46:29;;;;;;;;;;;;;;;11.79;72.89;94559.31;5114785;28;1043;-63
2023/12/13 10:48:55;;;;;;;;;;;;;;;11.93;72.34;94555.84;5114700;28;1914;-64
2023/12/13 10:51:21;;;;;;;;;;;;;;;11.89;71.01;94557.19;5114943;28;980;-64
2023/12/13 10:53:48;;;;;;;;;;;;;;;11.98;71.57;94553.44;5114604;28;1149;-62
2023/12/13 10:56:15;;;;;;;;;;;;;;;12.17;71.17;94535.97;5114911;28;969;-64
2023/12/13 10:58:44;;;;;;;;;;;;;;;12.40;68.15;94537.72;5115281;28;1011;-62
2023/12/13 11:01:11;;;;;;;;;;;;;;;12.50;68.08;94528.38;5114109;28;960;-65
2023/12/13 11:03:42;;;;;;;;;;;;;;;12.35;70.31;94522.19;5114609;28;1076;-64
2023/12/13 11:06:12;;;;;;;;;;;;;;;12.44;68.13;94525.59;5114712;28;1040;-60
2023/12/13 11:08:39;;;;;;;;;;;;;;;13.16;64.37;94513.97;5114590;28;1036;-61
2023/12/13 11:11:06;;;;;;;;;;;;;;;13.57;63.87;94499.88;5114792;28;1972;-63
2023/12/13 11:13:37;;;;;;;;;;;;;;;13.73;62.24;94506.00;5114454;28;1119;-62
2023/12/13 11:16:12;;;;;;;;;;;;;;;13.83;60.93;94498.44;5114572;28;1051;-63
2023/12/13 11:18:38;;;;;;;;;;;;;;;13.90;61.71;94495.75;5114691;28;980;-63
2023/12/13 11:21:05;;;;;;;;;;;;;;;13.96;61.17;94485.06;5114678;28;1043;-64
2023/12/13 11:23:31;;;;;;;;;;;;;;;13.94;61.76;94486.28;5114517;28;987;-64
2023/12/13 11:25:57;;;;;;;;;;;;;;;13.96;61.58;94481.53;5114399;28;1205;-63
2023/12/13 11:28:24;;;;;;;;;;;;;;;13.89;61.34;94472.59;5114437;28;984;-63
2023/12/13 11:30:53;;;;;;;;;;;;;;;13.85;60.25;94475.69;5114162;28;1905;-63
2023/12/13 11:33:21;;;;;;;;;;;;;;;13.86;60.72;94455.03;5114090;28;1822;-63
2023/12/13 11:35:51;;;;;;;;;;;;;;;13.86;60.50;94463.91;5114301;28;1015;-64
2023/12/13 11:38:17;;;;;;;;;;;;;;;13.86;61.04;94466.59;5114300;28;1040;-63
2023/12/13 11:40:44;;;;;;;;;;;;;;;13.83;60.53;94466.19;5114365;28;1278;-63
2023/12/13 11:43:11;;;;;;;;;;;;;;;13.82;60.71;94464.50;5113985;28;1118;-63
2023/12/13 11:45:46;;;;;;;;;;;;;;;13.81;60.66;94461.00;5114188;28;1030;-63
2023/12/13 11:48:12;;;;;;;;;;;;;;;13.73;61.05;94460.31;5113729;28;1123;-64
2023/12/13 11:50:38;;;;;;;;;;;;;;;13.77;61.21;94450.84;5114063;28;1989;-62
2023/12/13 11:53:06;;;;;;;;;;;;;;;13.76;61.47;94454.56;5114127;28;1023;-63
2023/12/13 11:55:32;;;;;;;;;;;;;;;13.70;61.71;94461.56;5112566;28;1194;-65
2023/12/13 11:58:00;;;;;;;;;;;;;;;13.63;61.25;94460.66;5113876;28;1043;-62
2023/12/13 12:00:26;;;;;;;;;;;;;;;13.58;61.58;94460.44;5113700;28;1048;-64
2023/12/13 12:02:53;;;;;;;;;;;;;;;13.48;61.67;94466.97;5113984;28;985;-63
2023/12/13 12:05:21;;;;;;;;;;;;;;;13.54;61.72;94453.78;5113565;28;1088;-63
2023/12/13 12:07:59;;;;;;;;;;;;;;;13.56;63.03;94449.06;5113657;28;991;-63
2023/12/13 12:10:25;;;;;;;;;;;;;;;13.48;62.35;94440.13;5113796;28;1906;-63
2023/12/13 12:12:51;;;;;;;;;;;;;;;13.43;62.61;94442.56;5119352;28;1011;-62
2023/12/13 12:15:19;;;;;;;;;;;;;;;13.41;62.69;94438.41;5119484;28;1024;-63
2023/12/13 12:17:46;;;;;;;;;;;;;;;13.33;62.83;94433.19;5120629;27;980;-63
2023/12/13 12:20:12;;;;;;;;;;;;;;;13.26;63.14;94438.47;5120537;27;1047;-62
2023/12/13 12:22:38;;;;;;;;;;;;;;;13.35;63.29;94440.03;5120474;27;1051;-64
2023/12/13 12:25:05;;;;;;;;;;;;;;;13.29;63.42;94448.84;5120393;27;988;-63
2023/12/13 12:27:31;;;;;;;;;;;;;;;13.27;63.67;94448.19;5119879;27;1602;-63
2023/12/13 12:29:57;;;;;;;;;;;;;;;13.27;63.93;94449.03;5119781;28;1906;-63
2023/12/13 12:32:23;;;;;;;;;;;;;;;13.31;64.18;94449.50;5119781;27;1299;-63
2023/12/13 12:34:49;;;;;;;;;;;;;;;13.31;63.91;94438.75;5117018;28;1516;-64
2023/12/13 12:37:16;;;;;;;;;;;;;;;13.23;64.14;94436.19;5119917;28;1197;-64
2023/12/13 12:39:42;;;;;;;;;;;;;;;13.26;64.37;94442.00;5120001;28;1208;-64
2023/12/13 12:42:08;;;;;;;;;;;;;;;13.27;64.40;94437.47;5119492;28;1280;-64
2023/12/13 12:44:34;;;;;;;;;;;;;;;13.25;64.39;94439.50;5119872;27;1291;-64
2023/12/13 12:47:00;;;;;;;;;;;;;;;13.20;64.87;94425.84;5119763;28;1279;-65
2023/12/13 12:49:26;;;;;;;;;;;;;;;13.24;64.68;94427.97;5119834;28;1902;-64
2023/12/13 12:51:52;;;;;;;;;;;;;;;13.27;65.50;94426.72;5119891;27;1228;-63
2023/12/13 12:54:18;;;;;;;;;;;;;;;13.23;65.31;94415.53;5119319;28;1291;-64
2023/12/13 12:56:44;;;;;;;;;;;;;;;13.21;65.50;94411.41;5119571;27;1326;-64
2023/12/13 12:59:14;;;;;;;;;;;;;;;13.19;66.33;94411.59;5117153;28;1304;-63
2023/12/13 13:01:43;;;;;;;;;;;;;;;13.18;66.33;94417.16;5119947;27;1280;-63
2023/12/13 13:04:14;;;;;;;;;;;;;;;13.18;66.49;94417.16;5116679;28;1212;-63